sensor_id;sensor_type;location;lat;lon;timestamp;pressure;altitude;pressure_sealevel;temperature;humidity
216;BME280;64590;48.81286795;9.14184224;2023-03-22T00:00:09;98115.69;;;9.67;73.16
216;BME280;64590;48.81286795;9.14184224;2023-03-22T00:02:39;98117.34;;;10.00;72.26
216;BME280;64590;48.81286795;9.14184224;2023-03-22T00:05:06;98116.16;;;10.01;72.03
216;BME280;64590;48.81286795;9.14184224;2023-03-22T00:07:33;98116.13;;;9.87;72.73
216;BME280;64590;48.81286795;9.14184224;2023-03-22T00:10:03;98109.03;;;10.11;71.81
216;BME280;64590;48.81286795;9.14184224;2023-03-22T00:12:30;98103.06;;;9.95;71.98
216;BME280;64590;48.81286795;9.14184224;2023-03-22T00:14:57;98105.84;;;10.02;72.12
216;BME280;64590;48.81286795;9.14184224;2023-03-22T00:17:25;98109.81;;;10.11;71.89
216;BME280;64590;48.81286795;9.14184224;2023-03-22T00:19:52;98111.00;;;10.17;72.29
216;BME280;64590;48.81286795;9.14184224;2023-03-22T00:22:19;98104.28;;;10.18;72.04
216;BME280;64590;48.81286795;9.14184224;2023-03-22T00:24:46;98102.69;;;10.17;71.97
216;BME280;64590;48.81286795;9.14184224;2023-03-22T00:27:13;98100.34;;;10.30;71.96
216;BME280;64590;48.81286795;9.14184224;2023-03-22T00:29:40;98098.75;;;10.33;72.24
216;BME280;64590;48.81286795;9.14184224;2023-03-22T00:32:09;98092.38;;;10.22;72.43
216;BME280;64590;48.81286795;9.14184224;2023-03-22T00:34:36;98093.19;;;10.11;72.27
216;BME280;64590;48.81286795;9.14184224;2023-03-22T00:37:02;98095.56;;;10.20;72.21
216;BME280;64590;48.81286795;9.14184224;2023-03-22T00:39:29;98094.81;;;10.27;72.01
216;BME280;64590;48.81286795;9.14184224;2023-03-22T00:41:55;98097.94;;;10.18;71.92
216;BME280;64590;48.81286795;9.14184224;2023-03-22T00:44:22;98103.06;;;10.05;72.36
216;BME280;64590;48.81286795;9.14184224;2023-03-22T00:46:48;98094.75;;;10.16;71.84
216;BME280;64590;48.81286795;9.14184224;2023-03-22T00:49:17;98090.00;;;10.13;72.24
216;BME280;64590;48.81286795;9.14184224;2023-03-22T00:51:43;98093.19;;;10.08;72.36
216;BME280;64590;48.81286795;9.14184224;2023-03-22T00:54:10;98080.88;;;10.12;72.24
216;BME280;64590;48.81286795;9.14184224;2023-03-22T00:56:37;98063.06;;;9.92;72.48
216;BME280;64590;48.81286795;9.14184224;2023-03-22T00:59:13;98078.53;;;10.00;72.45
216;BME280;64590;48.81286795;9.14184224;2023-03-22T01:01:41;98070.97;;;9.94;72.83
216;BME280;64590;48.81286795;9.14184224;2023-03-22T01:04:08;98079.72;;;10.10;72.56
216;BME280;64590;48.81286795;9.14184224;2023-03-22T01:06:40;98070.19;;;10.11;72.90
216;BME280;64590;48.81286795;9.14184224;2023-03-22T01:09:07;98068.22;;;10.04;73.44
216;BME280;64590;48.81286795;9.14184224;2023-03-22T01:11:40;98061.47;;;10.12;73.71
216;BME280;64590;48.81286795;9.14184224;2023-03-22T01:14:06;98063.06;;;10.17;73.54
216;BME280;64590;48.81286795;9.14184224;2023-03-22T01:16:34;98059.91;;;10.08;73.50
216;BME280;64590;48.81286795;9.14184224;2023-03-22T01:19:00;98062.25;;;10.06;73.72
216;BME280;64590;48.81286795;9.14184224;2023-03-22T01:21:28;98056.31;;;9.79;74.31
216;BME280;64590;48.81286795;9.14184224;2023-03-22T01:23:56;98048.78;;;9.72;74.05
216;BME280;64590;48.81286795;9.14184224;2023-03-22T01:26:22;98049.16;;;9.63;73.60
216;BME280;64590;48.81286795;9.14184224;2023-03-22T01:28:49;98047.56;;;9.59;73.91
216;BME280;64590;48.81286795;9.14184224;2023-03-22T01:31:16;98046.38;;;9.63;73.77
216;BME280;64590;48.81286795;9.14184224;2023-03-22T01:33:42;98038.06;;;9.60;73.85
216;BME280;64590;48.81286795;9.14184224;2023-03-22T01:36:09;98036.47;;;9.52;74.28
216;BME280;64590;48.81286795;9.14184224;2023-03-22T01:38:36;98032.53;;;9.63;73.47
216;BME280;64590;48.81286795;9.14184224;2023-03-22T01:41:05;98035.72;;;9.69;72.84
216;BME280;64590;48.81286795;9.14184224;2023-03-22T01:43:35;98029.72;;;9.46;73.62
216;BME280;64590;48.81286795;9.14184224;2023-03-22T01:46:02;98028.09;;;9.27;74.49
216;BME280;64590;48.81286795;9.14184224;2023-03-22T01:48:32;98034.03;;;9.22;74.33
216;BME280;64590;48.81286795;9.14184224;2023-03-22T01:51:07;98035.59;;;9.16;73.97
216;BME280;64590;48.81286795;9.14184224;2023-03-22T01:53:46;98031.63;;;9.20;74.32
216;BME280;64590;48.81286795;9.14184224;2023-03-22T01:56:16;98036.00;;;9.18;74.00
216;BME280;64590;48.81286795;9.14184224;2023-03-22T01:58:45;98035.56;;;9.05;73.77
216;BME280;64590;48.81286795;9.14184224;2023-03-22T02:01:15;98040.31;;;9.08;74.17
216;BME280;64590;48.81286795;9.14184224;2023-03-22T02:03:49;98035.59;;;9.19;73.14
216;BME280;64590;48.81286795;9.14184224;2023-03-22T02:06:17;98026.47;;;9.08;73.78
216;BME280;64590;48.81286795;9.14184224;2023-03-22T02:08:49;98030.44;;;9.11;73.09
216;BME280;64590;48.81286795;9.14184224;2023-03-22T02:11:24;98032.75;;;9.01;73.19
216;BME280;64590;48.81286795;9.14184224;2023-03-22T02:14:12;98019.69;;;8.91;73.59
216;BME280;64590;48.81286795;9.14184224;2023-03-22T02:17:25;98019.66;;;8.84;73.99
216;BME280;64590;48.81286795;9.14184224;2023-03-22T02:20:23;98017.28;;;8.83;73.80
216;BME280;64590;48.81286795;9.14184224;2023-03-22T02:23:40;98014.53;;;8.93;73.19
216;BME280;64590;48.81286795;9.14184224;2023-03-22T02:26:34;98010.88;;;8.68;74.17
216;BME280;64590;48.81286795;9.14184224;2023-03-22T02:29:12;98005.72;;;8.66;74.00
216;BME280;64590;48.81286795;9.14184224;2023-03-22T02:32:10;98003.72;;;8.60;74.73
216;BME280;64590;48.81286795;9.14184224;2023-03-22T02:35:09;98003.00;;;8.77;73.92
216;BME280;64590;48.81286795;9.14184224;2023-03-22T02:40:37;98003.00;;;8.70;73.83
216;BME280;64590;48.81286795;9.14184224;2023-03-22T02:43:14;98001.41;;;8.69;74.34
216;BME280;64590;48.81286795;9.14184224;2023-03-22T02:45:49;98002.53;;;8.57;74.53
216;BME280;64590;48.81286795;9.14184224;2023-03-22T02:48:24;98004.53;;;8.67;74.66
216;BME280;64590;48.81286795;9.14184224;2023-03-22T02:50:53;98008.06;;;8.57;74.64
216;BME280;64590;48.81286795;9.14184224;2023-03-22T02:53:23;98006.56;;;8.74;74.00
216;BME280;64590;48.81286795;9.14184224;2023-03-22T02:55:57;98000.63;;;8.75;74.70
216;BME280;64590;48.81286795;9.14184224;2023-03-22T02:58:28;97993.47;;;8.67;73.80
216;BME280;64590;48.81286795;9.14184224;2023-03-22T03:01:02;97998.97;;;8.53;74.59
216;BME280;64590;48.81286795;9.14184224;2023-03-22T03:03:33;97994.66;;;8.63;74.33
216;BME280;64590;48.81286795;9.14184224;2023-03-22T03:06:07;97997.38;;;8.56;74.68
216;BME280;64590;48.81286795;9.14184224;2023-03-22T03:08:36;97998.66;;;8.69;74.00
216;BME280;64590;48.81286795;9.14184224;2023-03-22T03:11:05;97998.88;;;8.39;74.82
216;BME280;64590;48.81286795;9.14184224;2023-03-22T03:13:32;97984.34;;;8.56;74.65
216;BME280;64590;48.81286795;9.14184224;2023-03-22T03:15:59;98001.78;;;8.64;74.22
216;BME280;64590;48.81286795;9.14184224;2023-03-22T03:18:39;98000.59;;;8.65;74.76
216;BME280;64590;48.81286795;9.14184224;2023-03-22T03:21:19;97997.47;;;8.70;74.15
216;BME280;64590;48.81286795;9.14184224;2023-03-22T03:23:53;98002.44;;;8.39;74.92
216;BME280;64590;48.81286795;9.14184224;2023-03-22T03:26:28;98007.09;;;8.32;75.42
216;BME280;64590;48.81286795;9.14184224;2023-03-22T03:29:01;98004.00;;;8.40;75.32
216;BME280;64590;48.81286795;9.14184224;2023-03-22T03:31:34;98008.94;;;8.72;74.16
216;BME280;64590;48.81286795;9.14184224;2023-03-22T03:34:11;98004.91;;;8.55;74.43
216;BME280;64590;48.81286795;9.14184224;2023-03-22T03:36:43;98007.56;;;8.41;74.51
216;BME280;64590;48.81286795;9.14184224;2023-03-22T03:39:13;98001.16;;;8.30;75.14
216;BME280;64590;48.81286795;9.14184224;2023-03-22T03:41:43;98000.75;;;8.28;75.26
216;BME280;64590;48.81286795;9.14184224;2023-03-22T03:44:12;97994.84;;;8.29;74.69
216;BME280;64590;48.81286795;9.14184224;2023-03-22T03:46:40;98002.06;;;8.44;75.00
216;BME280;64590;48.81286795;9.14184224;2023-03-22T03:49:09;98007.66;;;8.52;74.25
216;BME280;64590;48.81286795;9.14184224;2023-03-22T03:51:45;98010.59;;;8.25;75.04
216;BME280;64590;48.81286795;9.14184224;2023-03-22T03:54:13;98007.84;;;8.25;75.36
216;BME280;64590;48.81286795;9.14184224;2023-03-22T03:56:41;98009.16;;;8.38;74.50
216;BME280;64590;48.81286795;9.14184224;2023-03-22T03:59:08;98007.75;;;8.11;75.25
216;BME280;64590;48.81286795;9.14184224;2023-03-22T04:01:34;98012.13;;;8.15;74.93
216;BME280;64590;48.81286795;9.14184224;2023-03-22T04:04:09;98008.50;;;8.04;75.74
216;BME280;64590;48.81286795;9.14184224;2023-03-22T04:06:45;98016.25;;;7.84;76.11
216;BME280;64590;48.81286795;9.14184224;2023-03-22T04:09:16;98009.13;;;7.83;76.42
216;BME280;64590;48.81286795;9.14184224;2023-03-22T04:11:49;98004.41;;;7.87;75.76
216;BME280;64590;48.81286795;9.14184224;2023-03-22T04:14:16;98003.03;;;8.11;75.20
216;BME280;64590;48.81286795;9.14184224;2023-03-22T04:16:45;98006.50;;;8.01;75.72
216;BME280;64590;48.81286795;9.14184224;2023-03-22T04:19:17;98008.09;;;8.02;75.74
216;BME280;64590;48.81286795;9.14184224;2023-03-22T04:21:44;98000.13;;;7.93;75.90
216;BME280;64590;48.81286795;9.14184224;2023-03-22T04:24:12;97999.28;;;7.86;75.91
216;BME280;64590;48.81286795;9.14184224;2023-03-22T04:26:42;98002.38;;;7.81;76.70
216;BME280;64590;48.81286795;9.14184224;2023-03-22T04:29:25;97989.34;;;7.78;76.49
216;BME280;64590;48.81286795;9.14184224;2023-03-22T04:31:57;97993.13;;;7.59;76.80
216;BME280;64590;48.81286795;9.14184224;2023-03-22T04:34:33;97985.00;;;7.80;76.90
216;BME280;64590;48.81286795;9.14184224;2023-03-22T04:37:02;97983.38;;;7.72;76.89
216;BME280;64590;48.81286795;9.14184224;2023-03-22T04:39:31;97989.81;;;7.87;76.18
216;BME280;64590;48.81286795;9.14184224;2023-03-22T04:42:14;97985.16;;;7.98;76.36
216;BME280;64590;48.81286795;9.14184224;2023-03-22T04:44:42;97983.50;;;7.86;76.14
216;BME280;64590;48.81286795;9.14184224;2023-03-22T04:47:09;97981.41;;;7.73;76.64
216;BME280;64590;48.81286795;9.14184224;2023-03-22T04:49:36;97974.06;;;7.91;76.52
216;BME280;64590;48.81286795;9.14184224;2023-03-22T04:52:02;97977.13;;;7.79;76.77
216;BME280;64590;48.81286795;9.14184224;2023-03-22T04:54:45;97974.75;;;7.81;76.56
216;BME280;64590;48.81286795;9.14184224;2023-03-22T04:57:12;97963.69;;;7.77;76.94
216;BME280;64590;48.81286795;9.14184224;2023-03-22T04:59:44;97964.56;;;7.88;76.44
216;BME280;64590;48.81286795;9.14184224;2023-03-22T05:02:11;97959.97;;;8.10;75.83
216;BME280;64590;48.81286795;9.14184224;2023-03-22T05:04:41;97946.88;;;8.00;76.16
216;BME280;64590;48.81286795;9.14184224;2023-03-22T05:07:30;97953.34;;;8.26;75.53
216;BME280;64590;48.81286795;9.14184224;2023-03-22T05:10:00;97952.69;;;8.46;74.76
216;BME280;64590;48.81286795;9.14184224;2023-03-22T05:12:27;97951.97;;;8.67;73.89
216;BME280;64590;48.81286795;9.14184224;2023-03-22T05:15:16;97957.31;;;8.32;74.99
216;BME280;64590;48.81286795;9.14184224;2023-03-22T05:17:43;97962.19;;;8.49;74.20
216;BME280;64590;48.81286795;9.14184224;2023-03-22T05:20:10;97963.81;;;8.57;73.82
216;BME280;64590;48.81286795;9.14184224;2023-03-22T05:22:39;97964.19;;;8.56;74.20
216;BME280;64590;48.81286795;9.14184224;2023-03-22T05:25:08;97962.22;;;8.56;74.05
216;BME280;64590;48.81286795;9.14184224;2023-03-22T05:27:36;97964.63;;;8.68;74.00
216;BME280;64590;48.81286795;9.14184224;2023-03-22T05:30:24;97961.84;;;8.65;73.49
216;BME280;64590;48.81286795;9.14184224;2023-03-22T05:32:58;97964.69;;;8.79;73.10
216;BME280;64590;48.81286795;9.14184224;2023-03-22T05:35:28;97959.19;;;8.86;73.03
216;BME280;64590;48.81286795;9.14184224;2023-03-22T05:37:56;97961.56;;;8.91;72.78
216;BME280;64590;48.81286795;9.14184224;2023-03-22T05:40:26;97958.72;;;8.77;73.16
216;BME280;64590;48.81286795;9.14184224;2023-03-22T05:42:53;97957.16;;;8.69;73.18
216;BME280;64590;48.81286795;9.14184224;2023-03-22T05:45:25;97958.38;;;8.93;73.00
216;BME280;64590;48.81286795;9.14184224;2023-03-22T05:48:21;97967.19;;;9.23;71.38
216;BME280;64590;48.81286795;9.14184224;2023-03-22T05:50:48;97976.66;;;9.15;71.53
216;BME280;64590;48.81286795;9.14184224;2023-03-22T05:53:14;97975.44;;;9.05;71.44
216;BME280;64590;48.81286795;9.14184224;2023-03-22T05:55:49;97969.13;;;9.09;72.02
216;BME280;64590;48.81286795;9.14184224;2023-03-22T05:58:17;97964.41;;;9.23;71.17
216;BME280;64590;48.81286795;9.14184224;2023-03-22T06:00:46;97973.50;;;9.20;71.39
216;BME280;64590;48.81286795;9.14184224;2023-03-22T06:03:17;97972.72;;;9.23;71.23
216;BME280;64590;48.81286795;9.14184224;2023-03-22T06:05:49;97974.69;;;9.23;71.09
216;BME280;64590;48.81286795;9.14184224;2023-03-22T06:08:17;97976.25;;;9.20;71.07
216;BME280;64590;48.81286795;9.14184224;2023-03-22T06:10:44;97978.66;;;9.36;71.19
216;BME280;64590;48.81286795;9.14184224;2023-03-22T06:13:13;97981.44;;;9.22;71.35
216;BME280;64590;48.81286795;9.14184224;2023-03-22T06:15:40;97981.06;;;9.48;70.90
216;BME280;64590;48.81286795;9.14184224;2023-03-22T06:18:10;97987.75;;;9.37;71.50
216;BME280;64590;48.81286795;9.14184224;2023-03-22T06:20:41;97975.91;;;9.43;70.90
216;BME280;64590;48.81286795;9.14184224;2023-03-22T06:23:14;97985.00;;;9.54;71.07
216;BME280;64590;48.81286795;9.14184224;2023-03-22T06:25:43;97990.59;;;9.65;70.40
216;BME280;64590;48.81286795;9.14184224;2023-03-22T06:28:09;97998.50;;;9.74;69.96
216;BME280;64590;48.81286795;9.14184224;2023-03-22T06:30:38;97997.31;;;9.75;70.05
216;BME280;64590;48.81286795;9.14184224;2023-03-22T06:33:05;97994.94;;;9.84;69.78
216;BME280;64590;48.81286795;9.14184224;2023-03-22T06:35:37;97992.53;;;9.97;69.97
216;BME280;64590;48.81286795;9.14184224;2023-03-22T06:38:06;97991.38;;;10.01;70.27
216;BME280;64590;48.81286795;9.14184224;2023-03-22T06:40:35;97996.13;;;10.04;70.23
216;BME280;64590;48.81286795;9.14184224;2023-03-22T06:43:02;97998.88;;;10.15;69.06
216;BME280;64590;48.81286795;9.14184224;2023-03-22T06:45:30;98006.03;;;10.27;69.11
216;BME280;64590;48.81286795;9.14184224;2023-03-22T06:47:59;98000.06;;;10.35;68.60
216;BME280;64590;48.81286795;9.14184224;2023-03-22T06:50:33;98008.78;;;10.37;67.85
216;BME280;64590;48.81286795;9.14184224;2023-03-22T06:53:10;98010.78;;;10.30;68.70
216;BME280;64590;48.81286795;9.14184224;2023-03-22T06:55:38;97997.25;;;10.53;67.53
216;BME280;64590;48.81286795;9.14184224;2023-03-22T06:58:12;98003.97;;;10.59;66.95
216;BME280;64590;48.81286795;9.14184224;2023-03-22T07:00:39;97998.00;;;10.71;66.54
216;BME280;64590;48.81286795;9.14184224;2023-03-22T07:03:06;97998.72;;;10.90;65.13
216;BME280;64590;48.81286795;9.14184224;2023-03-22T07:05:43;97996.66;;;11.01;64.38
216;BME280;64590;48.81286795;9.14184224;2023-03-22T07:08:11;97996.78;;;10.80;65.09
216;BME280;64590;48.81286795;9.14184224;2023-03-22T07:10:48;97994.00;;;10.80;65.11
216;BME280;64590;48.81286795;9.14184224;2023-03-22T07:13:14;97992.38;;;10.82;64.81
216;BME280;64590;48.81286795;9.14184224;2023-03-22T07:15:41;98002.22;;;11.04;63.65
216;BME280;64590;48.81286795;9.14184224;2023-03-22T07:18:16;98002.56;;;11.14;63.02
216;BME280;64590;48.81286795;9.14184224;2023-03-22T07:20:44;98004.34;;;11.49;61.89
216;BME280;64590;48.81286795;9.14184224;2023-03-22T07:23:12;97982.31;;;11.76;60.68
216;BME280;64590;48.81286795;9.14184224;2023-03-22T07:25:47;97995.00;;;11.77;59.73
216;BME280;64590;48.81286795;9.14184224;2023-03-22T07:28:22;97988.81;;;11.55;60.85
216;BME280;64590;48.81286795;9.14184224;2023-03-22T07:30:58;97988.28;;;11.74;61.42
216;BME280;64590;48.81286795;9.14184224;2023-03-22T07:33:25;97988.88;;;12.03;59.95
216;BME280;64590;48.81286795;9.14184224;2023-03-22T07:35:54;97982.56;;;11.96;60.75
216;BME280;64590;48.81286795;9.14184224;2023-03-22T07:38:22;97987.66;;;12.08;58.77
216;BME280;64590;48.81286795;9.14184224;2023-03-22T07:40:51;97993.22;;;12.04;58.75
216;BME280;64590;48.81286795;9.14184224;2023-03-22T07:43:19;97991.16;;;12.12;58.27
216;BME280;64590;48.81286795;9.14184224;2023-03-22T07:45:54;97985.25;;;12.10;59.11
216;BME280;64590;48.81286795;9.14184224;2023-03-22T07:48:47;97992.03;;;12.05;58.27
216;BME280;64590;48.81286795;9.14184224;2023-03-22T07:51:34;97992.66;;;12.24;58.31
216;BME280;64590;48.81286795;9.14184224;2023-03-22T07:54:03;97999.03;;;12.62;57.66
216;BME280;64590;48.81286795;9.14184224;2023-03-22T07:56:32;97993.75;;;12.71;56.60
216;BME280;64590;48.81286795;9.14184224;2023-03-22T07:58:59;97986.47;;;12.81;55.97
216;BME280;64590;48.81286795;9.14184224;2023-03-22T08:01:25;97994.28;;;12.93;55.45
216;BME280;64590;48.81286795;9.14184224;2023-03-22T08:04:12;97995.91;;;12.90;55.65
216;BME280;64590;48.81286795;9.14184224;2023-03-22T08:06:54;97990.69;;;12.92;55.85
216;BME280;64590;48.81286795;9.14184224;2023-03-22T08:09:24;97994.16;;;13.04;55.85
216;BME280;64590;48.81286795;9.14184224;2023-03-22T08:11:51;97998.75;;;13.21;56.87
216;BME280;64590;48.81286795;9.14184224;2023-03-22T08:14:18;97992.25;;;13.27;56.45
216;BME280;64590;48.81286795;9.14184224;2023-03-22T08:16:44;97994.94;;;13.38;55.52
216;BME280;64590;48.81286795;9.14184224;2023-03-22T08:19:11;97997.81;;;13.31;55.78
216;BME280;64590;48.81286795;9.14184224;2023-03-22T08:21:38;97998.88;;;13.41;55.62
216;BME280;64590;48.81286795;9.14184224;2023-03-22T08:24:08;97991.22;;;13.45;55.02
216;BME280;64590;48.81286795;9.14184224;2023-03-22T08:27:00;97998.88;;;13.68;54.89
216;BME280;64590;48.81286795;9.14184224;2023-03-22T08:29:37;97985.13;;;13.53;55.03
216;BME280;64590;48.81286795;9.14184224;2023-03-22T08:32:04;97987.78;;;13.64;55.58
216;BME280;64590;48.81286795;9.14184224;2023-03-22T08:34:35;97982.44;;;13.73;54.31
216;BME280;64590;48.81286795;9.14184224;2023-03-22T08:37:03;97981.06;;;13.85;55.66
216;BME280;64590;48.81286795;9.14184224;2023-03-22T08:39:29;97971.66;;;13.75;54.48
216;BME280;64590;48.81286795;9.14184224;2023-03-22T08:42:16;97975.69;;;13.71;55.62
216;BME280;64590;48.81286795;9.14184224;2023-03-22T08:44:42;97977.28;;;13.72;54.48
216;BME280;64590;48.81286795;9.14184224;2023-03-22T08:47:10;97986.44;;;13.72;55.36
216;BME280;64590;48.81286795;9.14184224;2023-03-22T08:49:39;97987.75;;;13.91;56.25
216;BME280;64590;48.81286795;9.14184224;2023-03-22T08:52:13;97980.44;;;14.21;55.30
216;BME280;64590;48.81286795;9.14184224;2023-03-22T08:54:57;97984.88;;;14.18;54.11
216;BME280;64590;48.81286795;9.14184224;2023-03-22T08:57:54;97980.94;;;14.15;53.51
216;BME280;64590;48.81286795;9.14184224;2023-03-22T09:00:41;97980.81;;;14.23;54.55
216;BME280;64590;48.81286795;9.14184224;2023-03-22T09:03:26;97976.88;;;14.20;53.93
216;BME280;64590;48.81286795;9.14184224;2023-03-22T09:05:53;97976.75;;;14.27;53.70
216;BME280;64590;48.81286795;9.14184224;2023-03-22T09:08:20;97979.91;;;14.29;55.84
216;BME280;64590;48.81286795;9.14184224;2023-03-22T09:10:52;97974.66;;;14.31;52.91
216;BME280;64590;48.81286795;9.14184224;2023-03-22T09:13:22;97971.91;;;14.08;54.20
216;BME280;64590;48.81286795;9.14184224;2023-03-22T09:15:56;97972.97;;;14.37;53.90
216;BME280;64590;48.81286795;9.14184224;2023-03-22T09:18:26;97946.41;;;14.06;55.77
216;BME280;64590;48.81286795;9.14184224;2023-03-22T09:20:56;97959.31;;;14.43;53.89
216;BME280;64590;48.81286795;9.14184224;2023-03-22T09:23:28;97958.47;;;14.46;53.07
216;BME280;64590;48.81286795;9.14184224;2023-03-22T09:25:59;97965.06;;;14.32;53.59
216;BME280;64590;48.81286795;9.14184224;2023-03-22T09:28:27;97959.50;;;14.76;53.48
216;BME280;64590;48.81286795;9.14184224;2023-03-22T09:30:59;97950.63;;;14.61;52.98
216;BME280;64590;48.81286795;9.14184224;2023-03-22T09:33:25;97958.34;;;14.53;52.70
216;BME280;64590;48.81286795;9.14184224;2023-03-22T09:35:53;97949.75;;;14.21;53.99
216;BME280;64590;48.81286795;9.14184224;2023-03-22T09:38:21;97946.31;;;14.33;54.60
216;BME280;64590;48.81286795;9.14184224;2023-03-22T09:40:52;97946.47;;;14.89;52.77
216;BME280;64590;48.81286795;9.14184224;2023-03-22T09:43:28;97945.31;;;14.86;52.89
216;BME280;64590;48.81286795;9.14184224;2023-03-22T09:45:57;97939.44;;;14.81;52.84
216;BME280;64590;48.81286795;9.14184224;2023-03-22T09:48:27;97948.63;;;15.17;52.01
216;BME280;64590;48.81286795;9.14184224;2023-03-22T09:50:55;97938.44;;;15.27;51.37
216;BME280;64590;48.81286795;9.14184224;2023-03-22T09:53:23;97939.16;;;15.11;51.33
216;BME280;64590;48.81286795;9.14184224;2023-03-22T09:55:56;97944.06;;;15.07;51.54
216;BME280;64590;48.81286795;9.14184224;2023-03-22T09:58:31;97941.47;;;15.16;51.39
216;BME280;64590;48.81286795;9.14184224;2023-03-22T10:00:59;97935.13;;;15.32;50.48
216;BME280;64590;48.81286795;9.14184224;2023-03-22T10:03:54;97923.41;;;15.21;51.43
216;BME280;64590;48.81286795;9.14184224;2023-03-22T10:06:27;97913.72;;;15.42;50.77
216;BME280;64590;48.81286795;9.14184224;2023-03-22T10:09:00;97899.44;;;15.20;50.62
216;BME280;64590;48.81286795;9.14184224;2023-03-22T10:11:38;97918.69;;;15.34;50.54
216;BME280;64590;48.81286795;9.14184224;2023-03-22T10:14:20;97910.56;;;15.23;50.33
216;BME280;64590;48.81286795;9.14184224;2023-03-22T10:16:50;97916.75;;;15.15;50.79
216;BME280;64590;48.81286795;9.14184224;2023-03-22T10:19:20;97910.63;;;15.20;50.28
216;BME280;64590;48.81286795;9.14184224;2023-03-22T10:21:49;97899.69;;;15.09;51.65
216;BME280;64590;48.81286795;9.14184224;2023-03-22T10:24:19;97903.06;;;15.01;51.37
216;BME280;64590;48.81286795;9.14184224;2023-03-22T10:26:48;97899.03;;;15.21;51.58
216;BME280;64590;48.81286795;9.14184224;2023-03-22T10:29:20;97899.03;;;15.21;51.96
216;BME280;64590;48.81286795;9.14184224;2023-03-22T10:31:48;97906.03;;;15.46;51.61
216;BME280;64590;48.81286795;9.14184224;2023-03-22T10:34:19;97928.09;;;16.09;51.44
216;BME280;64590;48.81286795;9.14184224;2023-03-22T10:36:47;97887.25;;;15.95;51.00
216;BME280;64590;48.81286795;9.14184224;2023-03-22T10:39:25;97885.19;;;16.12;49.38
216;BME280;64590;48.81286795;9.14184224;2023-03-22T10:41:54;97885.16;;;16.28;51.14
216;BME280;64590;48.81286795;9.14184224;2023-03-22T10:44:24;97878.81;;;16.40;49.07
216;BME280;64590;48.81286795;9.14184224;2023-03-22T10:46:54;97872.47;;;16.24;49.46
216;BME280;64590;48.81286795;9.14184224;2023-03-22T10:49:25;97872.69;;;16.46;49.99
216;BME280;64590;48.81286795;9.14184224;2023-03-22T10:51:55;97868.50;;;16.37;49.01
216;BME280;64590;48.81286795;9.14184224;2023-03-22T10:54:24;97862.13;;;16.37;48.63
216;BME280;64590;48.81286795;9.14184224;2023-03-22T10:56:51;97865.09;;;16.30;49.52
216;BME280;64590;48.81286795;9.14184224;2023-03-22T10:59:48;97862.91;;;16.37;49.37
216;BME280;64590;48.81286795;9.14184224;2023-03-22T11:02:17;97856.97;;;16.48;49.14
216;BME280;64590;48.81286795;9.14184224;2023-03-22T11:04:46;97857.19;;;16.41;49.96
216;BME280;64590;48.81286795;9.14184224;2023-03-22T11:07:15;97846.34;;;16.43;49.30
216;BME280;64590;48.81286795;9.14184224;2023-03-22T11:09:57;97859.00;;;16.77;47.89
216;BME280;64590;48.81286795;9.14184224;2023-03-22T11:12:24;97857.66;;;16.81;47.73
216;BME280;64590;48.81286795;9.14184224;2023-03-22T11:14:51;97846.56;;;16.78;48.33
216;BME280;64590;48.81286795;9.14184224;2023-03-22T11:17:21;97840.63;;;16.88;48.06
216;BME280;64590;48.81286795;9.14184224;2023-03-22T11:19:51;97841.28;;;16.92;47.22
216;BME280;64590;48.81286795;9.14184224;2023-03-22T11:22:23;97850.53;;;16.64;48.06
216;BME280;64590;48.81286795;9.14184224;2023-03-22T11:24:51;97837.81;;;16.88;46.27
216;BME280;64590;48.81286795;9.14184224;2023-03-22T11:27:20;97837.16;;;16.97;46.50
216;BME280;64590;48.81286795;9.14184224;2023-03-22T11:29:50;97826.22;;;17.37;43.59
216;BME280;64590;48.81286795;9.14184224;2023-03-22T11:32:25;97808.06;;;17.42;43.90
216;BME280;64590;48.81286795;9.14184224;2023-03-22T11:35:00;97838.88;;;17.80;44.82
216;BME280;64590;48.81286795;9.14184224;2023-03-22T11:37:28;97831.72;;;17.53;45.56
216;BME280;64590;48.81286795;9.14184224;2023-03-22T11:39:59;97821.22;;;17.32;44.46
216;BME280;64590;48.81286795;9.14184224;2023-03-22T11:42:32;97816.25;;;17.36;43.60
216;BME280;64590;48.81286795;9.14184224;2023-03-22T11:44:59;97824.44;;;17.43;43.46
216;BME280;64590;48.81286795;9.14184224;2023-03-22T11:47:33;97831.28;;;17.55;42.10
216;BME280;64590;48.81286795;9.14184224;2023-03-22T11:50:04;97822.16;;;17.76;40.16
216;BME280;64590;48.81286795;9.14184224;2023-03-22T11:52:31;97817.88;;;17.85;42.19
216;BME280;64590;48.81286795;9.14184224;2023-03-22T11:54:59;97814.09;;;17.53;45.04
216;BME280;64590;48.81286795;9.14184224;2023-03-22T11:57:28;97800.00;;;17.31;46.18
216;BME280;64590;48.81286795;9.14184224;2023-03-22T11:59:58;97807.50;;;17.47;45.38
216;BME280;64590;48.81286795;9.14184224;2023-03-22T12:02:34;97808.91;;;17.64;45.64
216;BME280;64590;48.81286795;9.14184224;2023-03-22T12:05:07;97799.16;;;17.56;45.14
216;BME280;64590;48.81286795;9.14184224;2023-03-22T12:07:37;97794.22;;;17.73;44.85
216;BME280;64590;48.81286795;9.14184224;2023-03-22T12:10:12;97794.84;;;17.90;46.29
216;BME280;64590;48.81286795;9.14184224;2023-03-22T12:12:44;97799.28;;;18.00;45.71